Decoded Metar for KGSH (GOSHEN in IN, USA) (IATA:GSH) | Meteo·Mobile Aviation Weather
aviador You're here:

KGSH Decoded Metar

GOSHEN in IN, USA
Report Time2019-01-19 06:53:00
UTC Time2019-01-19 07:04:44
Flight Rules mvfr MVFR
Wind080° at 11 Gusting to 18 kt
W.Decomp.*RWY 09: 10.9 kt HW 1.1 kt LCW
RWY 05: 9.1 kt HW 6.2 kt RCW
W.Rank080° ranks 28
Current wind is above 080° avg. (6.9)
Visibility9999 m
Phenomena:N/A
Clouds:Overcast 012 Hf
Expected CloudBase > 800 ft AGL from Temp-Dew spread
Ceiling1,200 ft
Temp-2°C (ISA -15)
Dew Point-4°C (86% RH)
AAT-8.5°C
QNH1020 hPa
Density Alt-1,227 ft
Elevation827 ft
Report Wrong Elevation
Raw Report
KGSH 190653Z AUTO 08011G18KT 7SM OVC012 M02/M04 A3011 RMK AO2
PRESRR SLP204 T10221044=

Extra information for KGSH:More info

Metar Taf Metar & Taf Last 4 Metars F.Rules Stats Wind Profile Meteogram Temp Stats Airport Information Weather charts Add Link Nearby VenuesMetar ALERT Operation Metar Decoded Social comments

AIRNAV info for KGSH